sensor_id;sensor_type;location;lat;lon;timestamp;temperature;humidity
67555;HTU21D;54385;53.516;49.456;2023-09-19T00:00:38;21.13;48.15
67555;HTU21D;54385;53.516;49.456;2023-09-19T00:03:06;21.14;48.15
67555;HTU21D;54385;53.516;49.456;2023-09-19T00:05:36;21.11;48.18
67555;HTU21D;54385;53.516;49.456;2023-09-19T00:08:04;21.11;48.16
67555;HTU21D;54385;53.516;49.456;2023-09-19T00:10:32;21.10;48.19
67555;HTU21D;54385;53.516;49.456;2023-09-19T00:13:02;21.10;48.18
67555;HTU21D;54385;53.516;49.456;2023-09-19T00:15:38;21.10;48.21
67555;HTU21D;54385;53.516;49.456;2023-09-19T00:18:08;21.10;48.16
67555;HTU21D;54385;53.516;49.456;2023-09-19T00:20:38;21.08;48.17
67555;HTU21D;54385;53.516;49.456;2023-09-19T00:23:05;21.08;48.17
67555;HTU21D;54385;53.516;49.456;2023-09-19T00:25:37;21.08;48.18
67555;HTU21D;54385;53.516;49.456;2023-09-19T00:28:05;21.08;48.19
67555;HTU21D;54385;53.516;49.456;2023-09-19T00:30:33;21.07;48.18
67555;HTU21D;54385;53.516;49.456;2023-09-19T00:33:00;21.06;48.20
67555;HTU21D;54385;53.516;49.456;2023-09-19T00:35:27;21.07;48.18
67555;HTU21D;54385;53.516;49.456;2023-09-19T00:37:54;21.05;48.20
67555;HTU21D;54385;53.516;49.456;2023-09-19T00:40:21;21.05;48.18
67555;HTU21D;54385;53.516;49.456;2023-09-19T00:42:49;21.05;48.20
67555;HTU21D;54385;53.516;49.456;2023-09-19T00:45:18;21.05;48.19
67555;HTU21D;54385;53.516;49.456;2023-09-19T00:47:48;21.03;48.23
67555;HTU21D;54385;53.516;49.456;2023-09-19T00:50:22;21.03;48.27
67555;HTU21D;54385;53.516;49.456;2023-09-19T00:52:53;21.03;48.23
67555;HTU21D;54385;53.516;49.456;2023-09-19T00:55:24;21.01;48.22
67555;HTU21D;54385;53.516;49.456;2023-09-19T00:57:51;21.00;48.21
67555;HTU21D;54385;53.516;49.456;2023-09-19T01:00:19;21.01;48.23
67555;HTU21D;54385;53.516;49.456;2023-09-19T01:02:47;21.02;48.24
67555;HTU21D;54385;53.516;49.456;2023-09-19T01:05:14;21.00;48.24
67555;HTU21D;54385;53.516;49.456;2023-09-19T01:07:42;20.99;48.25
67555;HTU21D;54385;53.516;49.456;2023-09-19T01:10:11;20.99;48.24
67555;HTU21D;54385;53.516;49.456;2023-09-19T01:12:47;20.98;48.29
67555;HTU21D;54385;53.516;49.456;2023-09-19T01:15:40;20.96;48.33
67555;HTU21D;54385;53.516;49.456;2023-09-19T01:24:33;20.96;48.27
67555;HTU21D;54385;53.516;49.456;2023-09-19T01:29:45;20.96;48.20
67555;HTU21D;54385;53.516;49.456;2023-09-19T01:32:19;20.96;48.24
67555;HTU21D;54385;53.516;49.456;2023-09-19T01:34:55;20.96;48.21
67555;HTU21D;54385;53.516;49.456;2023-09-19T01:37:30;20.95;48.18
67555;HTU21D;54385;53.516;49.456;2023-09-19T01:40:02;20.96;48.18
67555;HTU21D;54385;53.516;49.456;2023-09-19T01:42:37;20.95;48.19
67555;HTU21D;54385;53.516;49.456;2023-09-19T01:45:26;20.95;48.22
67555;HTU21D;54385;53.516;49.456;2023-09-19T01:47:55;20.94;48.18
67555;HTU21D;54385;53.516;49.456;2023-09-19T01:50:46;20.95;48.21
67555;HTU21D;54385;53.516;49.456;2023-09-19T01:53:35;20.95;48.17
67555;HTU21D;54385;53.516;49.456;2023-09-19T01:56:05;20.95;48.12
67555;HTU21D;54385;53.516;49.456;2023-09-19T01:58:41;20.95;48.12
67555;HTU21D;54385;53.516;49.456;2023-09-19T02:01:11;20.95;48.08
67555;HTU21D;54385;53.516;49.456;2023-09-19T02:03:41;20.95;48.06
67555;HTU21D;54385;53.516;49.456;2023-09-19T02:06:17;20.95;48.09
67555;HTU21D;54385;53.516;49.456;2023-09-19T02:08:46;20.96;48.05
67555;HTU21D;54385;53.516;49.456;2023-09-19T02:11:13;20.96;48.03
67555;HTU21D;54385;53.516;49.456;2023-09-19T02:13:42;20.96;48.02
67555;HTU21D;54385;53.516;49.456;2023-09-19T02:16:16;20.96;48.01
67555;HTU21D;54385;53.516;49.456;2023-09-19T02:18:49;20.99;47.99
67555;HTU21D;54385;53.516;49.456;2023-09-19T02:21:19;20.99;47.99
67555;HTU21D;54385;53.516;49.456;2023-09-19T02:23:48;20.98;47.93
67555;HTU21D;54385;53.516;49.456;2023-09-19T02:26:15;20.99;47.91
67555;HTU21D;54385;53.516;49.456;2023-09-19T02:28:42;20.99;47.89
67555;HTU21D;54385;53.516;49.456;2023-09-19T02:31:09;21.01;47.87
67555;HTU21D;54385;53.516;49.456;2023-09-19T02:33:37;21.03;47.83
67555;HTU21D;54385;53.516;49.456;2023-09-19T02:36:04;21.02;47.80
67555;HTU21D;54385;53.516;49.456;2023-09-19T02:38:32;21.04;47.76
67555;HTU21D;54385;53.516;49.456;2023-09-19T02:40:58;21.05;47.70
67555;HTU21D;54385;53.516;49.456;2023-09-19T02:43:25;21.08;47.63
67555;HTU21D;54385;53.516;49.456;2023-09-19T02:45:52;21.10;47.57
67555;HTU21D;54385;53.516;49.456;2023-09-19T02:48:23;21.11;47.54
67555;HTU21D;54385;53.516;49.456;2023-09-19T02:50:56;21.14;47.46
67555;HTU21D;54385;53.516;49.456;2023-09-19T02:53:25;21.17;47.40
67555;HTU21D;54385;53.516;49.456;2023-09-19T02:55:51;21.19;47.34
67555;HTU21D;54385;53.516;49.456;2023-09-19T02:58:19;21.22;47.24
67555;HTU21D;54385;53.516;49.456;2023-09-19T03:00:45;21.27;47.12
67555;HTU21D;54385;53.516;49.456;2023-09-19T03:03:15;21.33;46.99
67555;HTU21D;54385;53.516;49.456;2023-09-19T03:05:43;21.38;46.83
67555;HTU21D;54385;53.516;49.456;2023-09-19T03:08:14;21.45;46.68
67555;HTU21D;54385;53.516;49.456;2023-09-19T03:10:46;21.50;46.51
67555;HTU21D;54385;53.516;49.456;2023-09-19T03:13:14;21.53;46.43
67555;HTU21D;54385;53.516;49.456;2023-09-19T03:15:42;21.61;46.47
67555;HTU21D;54385;53.516;49.456;2023-09-19T03:18:12;21.68;46.73
67555;HTU21D;54385;53.516;49.456;2023-09-19T03:20:39;21.75;46.59
67555;HTU21D;54385;53.516;49.456;2023-09-19T03:23:06;21.80;46.41
67555;HTU21D;54385;53.516;49.456;2023-09-19T03:25:34;21.87;46.20
67555;HTU21D;54385;53.516;49.456;2023-09-19T03:28:02;21.92;46.14
67555;HTU21D;54385;53.516;49.456;2023-09-19T03:30:32;21.95;46.36
67555;HTU21D;54385;53.516;49.456;2023-09-19T03:33:03;21.98;47.20
67555;HTU21D;54385;53.516;49.456;2023-09-19T03:35:30;22.02;47.63
67555;HTU21D;54385;53.516;49.456;2023-09-19T03:37:57;22.04;48.09
67555;HTU21D;54385;53.516;49.456;2023-09-19T03:40:24;22.07;48.41
67555;HTU21D;54385;53.516;49.456;2023-09-19T03:42:55;22.10;48.41
67555;HTU21D;54385;53.516;49.456;2023-09-19T03:45:24;22.13;48.27
67555;HTU21D;54385;53.516;49.456;2023-09-19T03:47:51;22.16;48.16
67555;HTU21D;54385;53.516;49.456;2023-09-19T03:50:20;22.23;48.05
67555;HTU21D;54385;53.516;49.456;2023-09-19T03:52:47;22.31;48.30
67555;HTU21D;54385;53.516;49.456;2023-09-19T03:55:13;22.39;48.20
67555;HTU21D;54385;53.516;49.456;2023-09-19T03:57:39;22.44;48.10
67555;HTU21D;54385;53.516;49.456;2023-09-19T04:00:11;22.50;47.97
67555;HTU21D;54385;53.516;49.456;2023-09-19T04:02:40;22.51;47.86
67555;HTU21D;54385;53.516;49.456;2023-09-19T04:05:07;22.51;47.80
67555;HTU21D;54385;53.516;49.456;2023-09-19T04:07:34;22.52;47.76
67555;HTU21D;54385;53.516;49.456;2023-09-19T04:10:00;22.51;47.71
67555;HTU21D;54385;53.516;49.456;2023-09-19T04:12:27;22.50;47.67
67555;HTU21D;54385;53.516;49.456;2023-09-19T04:14:54;22.49;47.65
67555;HTU21D;54385;53.516;49.456;2023-09-19T04:17:21;22.49;47.57
67555;HTU21D;54385;53.516;49.456;2023-09-19T04:19:47;22.51;47.77
67555;HTU21D;54385;53.516;49.456;2023-09-19T04:22:14;22.54;47.68
67555;HTU21D;54385;53.516;49.456;2023-09-19T04:24:40;22.58;47.50
67555;HTU21D;54385;53.516;49.456;2023-09-19T04:27:07;22.63;47.28
67555;HTU21D;54385;53.516;49.456;2023-09-19T04:29:33;22.72;46.99
67555;HTU21D;54385;53.516;49.456;2023-09-19T04:32:00;22.80;46.70
67555;HTU21D;54385;53.516;49.456;2023-09-19T04:34:30;22.92;46.34
67555;HTU21D;54385;53.516;49.456;2023-09-19T04:36:56;23.02;45.98
67555;HTU21D;54385;53.516;49.456;2023-09-19T04:39:25;23.09;45.70
67555;HTU21D;54385;53.516;49.456;2023-09-19T04:41:52;23.12;45.56
67555;HTU21D;54385;53.516;49.456;2023-09-19T04:44:20;23.10;45.48
67555;HTU21D;54385;53.516;49.456;2023-09-19T04:46:48;23.10;45.46
67555;HTU21D;54385;53.516;49.456;2023-09-19T04:49:15;23.02;45.46
67555;HTU21D;54385;53.516;49.456;2023-09-19T04:51:42;22.93;45.52
67555;HTU21D;54385;53.516;49.456;2023-09-19T04:54:09;22.86;45.60
67555;HTU21D;54385;53.516;49.456;2023-09-19T04:56:36;22.78;45.69
67555;HTU21D;54385;53.516;49.456;2023-09-19T04:59:02;22.75;45.68
67555;HTU21D;54385;53.516;49.456;2023-09-19T05:01:29;22.76;45.65
67555;HTU21D;54385;53.516;49.456;2023-09-19T05:03:59;22.88;45.81
67555;HTU21D;54385;53.516;49.456;2023-09-19T05:06:26;23.14;45.22
67555;HTU21D;54385;53.516;49.456;2023-09-19T05:08:53;23.38;44.78
67555;HTU21D;54385;53.516;49.456;2023-09-19T05:11:20;23.51;44.49
67555;HTU21D;54385;53.516;49.456;2023-09-19T05:13:49;23.59;44.48
67555;HTU21D;54385;53.516;49.456;2023-09-19T05:16:22;23.65;44.42
67555;HTU21D;54385;53.516;49.456;2023-09-19T05:18:49;23.72;44.25
67555;HTU21D;54385;53.516;49.456;2023-09-19T05:21:16;23.84;43.92
67555;HTU21D;54385;53.516;49.456;2023-09-19T05:23:46;23.94;43.64
67555;HTU21D;54385;53.516;49.456;2023-09-19T05:26:20;23.92;43.27
67555;HTU21D;54385;53.516;49.456;2023-09-19T05:28:55;23.97;43.05
67555;HTU21D;54385;53.516;49.456;2023-09-19T05:31:23;24.09;42.90
67555;HTU21D;54385;53.516;49.456;2023-09-19T05:33:52;24.17;42.81
67555;HTU21D;54385;53.516;49.456;2023-09-19T05:36:21;24.26;42.61
67555;HTU21D;54385;53.516;49.456;2023-09-19T05:38:51;24.43;42.29
67555;HTU21D;54385;53.516;49.456;2023-09-19T05:41:25;24.58;41.80
67555;HTU21D;54385;53.516;49.456;2023-09-19T05:43:51;24.68;41.71
67555;HTU21D;54385;53.516;49.456;2023-09-19T05:46:18;24.73;41.58
67555;HTU21D;54385;53.516;49.456;2023-09-19T05:48:48;24.75;41.47
67555;HTU21D;54385;53.516;49.456;2023-09-19T05:51:16;24.75;41.46
67555;HTU21D;54385;53.516;49.456;2023-09-19T05:53:47;24.73;41.38
67555;HTU21D;54385;53.516;49.456;2023-09-19T05:56:14;24.71;41.52
67555;HTU21D;54385;53.516;49.456;2023-09-19T05:58:41;24.73;41.49
67555;HTU21D;54385;53.516;49.456;2023-09-19T06:01:10;24.74;41.45
67555;HTU21D;54385;53.516;49.456;2023-09-19T06:03:37;24.66;41.58
67555;HTU21D;54385;53.516;49.456;2023-09-19T06:06:04;24.56;41.63
67555;HTU21D;54385;53.516;49.456;2023-09-19T06:08:35;24.45;41.71
67555;HTU21D;54385;53.516;49.456;2023-09-19T06:11:02;24.44;41.93
67555;HTU21D;54385;53.516;49.456;2023-09-19T06:13:31;24.54;41.71
67555;HTU21D;54385;53.516;49.456;2023-09-19T06:15:59;24.72;41.25
67555;HTU21D;54385;53.516;49.456;2023-09-19T06:18:31;24.93;40.91
67555;HTU21D;54385;53.516;49.456;2023-09-19T06:21:03;25.18;40.37
67555;HTU21D;54385;53.516;49.456;2023-09-19T06:23:36;25.28;40.11
67555;HTU21D;54385;53.516;49.456;2023-09-19T06:26:03;25.37;39.88
67555;HTU21D;54385;53.516;49.456;2023-09-19T06:28:32;25.49;39.69
67555;HTU21D;54385;53.516;49.456;2023-09-19T06:31:02;25.56;39.46
67555;HTU21D;54385;53.516;49.456;2023-09-19T06:33:28;25.59;39.29
67555;HTU21D;54385;53.516;49.456;2023-09-19T06:35:57;25.59;39.29
67555;HTU21D;54385;53.516;49.456;2023-09-19T06:38:26;25.64;39.07
67555;HTU21D;54385;53.516;49.456;2023-09-19T06:40:53;25.73;38.93
67555;HTU21D;54385;53.516;49.456;2023-09-19T06:43:23;25.90;38.57
67555;HTU21D;54385;53.516;49.456;2023-09-19T06:45:50;26.06;38.53
67555;HTU21D;54385;53.516;49.456;2023-09-19T06:48:18;26.20;38.33
67555;HTU21D;54385;53.516;49.456;2023-09-19T06:50:48;26.27;38.15
67555;HTU21D;54385;53.516;49.456;2023-09-19T06:53:15;26.27;38.15
67555;HTU21D;54385;53.516;49.456;2023-09-19T06:55:43;26.21;38.22
67555;HTU21D;54385;53.516;49.456;2023-09-19T06:58:13;26.09;38.29
67555;HTU21D;54385;53.516;49.456;2023-09-19T07:00:43;25.93;38.60
67555;HTU21D;54385;53.516;49.456;2023-09-19T07:03:16;25.75;38.63
67555;HTU21D;54385;53.516;49.456;2023-09-19T07:05:48;25.72;38.83
67555;HTU21D;54385;53.516;49.456;2023-09-19T07:08:14;25.65;38.82
67555;HTU21D;54385;53.516;49.456;2023-09-19T07:10:42;25.62;38.86
67555;HTU21D;54385;53.516;49.456;2023-09-19T07:13:15;25.61;38.81
67555;HTU21D;54385;53.516;49.456;2023-09-19T07:15:44;25.63;38.69
67555;HTU21D;54385;53.516;49.456;2023-09-19T07:18:14;25.71;38.49
67555;HTU21D;54385;53.516;49.456;2023-09-19T07:20:45;25.74;38.25
67555;HTU21D;54385;53.516;49.456;2023-09-19T07:23:19;25.94;38.17
67555;HTU21D;54385;53.516;49.456;2023-09-19T07:25:48;26.20;37.89
67555;HTU21D;54385;53.516;49.456;2023-09-19T07:28:18;26.41;37.62
67555;HTU21D;54385;53.516;49.456;2023-09-19T07:30:45;26.56;37.40
67555;HTU21D;54385;53.516;49.456;2023-09-19T07:33:12;26.52;37.46
67555;HTU21D;54385;53.516;49.456;2023-09-19T07:35:39;26.49;37.61
67555;HTU21D;54385;53.516;49.456;2023-09-19T07:38:08;26.39;37.82
67555;HTU21D;54385;53.516;49.456;2023-09-19T07:40:37;26.35;37.91
67555;HTU21D;54385;53.516;49.456;2023-09-19T07:43:07;26.31;37.95
67555;HTU21D;54385;53.516;49.456;2023-09-19T07:45:38;26.20;38.11
67555;HTU21D;54385;53.516;49.456;2023-09-19T07:48:09;26.09;38.40
67555;HTU21D;54385;53.516;49.456;2023-09-19T07:50:41;26.15;38.29
67555;HTU21D;54385;53.516;49.456;2023-09-19T07:53:10;26.22;38.06
67555;HTU21D;54385;53.516;49.456;2023-09-19T07:55:40;26.40;37.78
67555;HTU21D;54385;53.516;49.456;2023-09-19T07:58:09;26.66;37.33
67555;HTU21D;54385;53.516;49.456;2023-09-19T08:00:48;26.90;36.82
67555;HTU21D;54385;53.516;49.456;2023-09-19T08:03:22;26.92;36.81
67555;HTU21D;54385;53.516;49.456;2023-09-19T08:05:50;26.86;37.08
67555;HTU21D;54385;53.516;49.456;2023-09-19T08:08:17;26.69;37.29
67555;HTU21D;54385;53.516;49.456;2023-09-19T08:10:45;26.49;37.46
67555;HTU21D;54385;53.516;49.456;2023-09-19T08:13:15;26.31;37.68
67555;HTU21D;54385;53.516;49.456;2023-09-19T08:15:47;26.27;37.59
67555;HTU21D;54385;53.516;49.456;2023-09-19T08:18:17;26.31;37.52
67555;HTU21D;54385;53.516;49.456;2023-09-19T08:20:50;26.34;37.27
67555;HTU21D;54385;53.516;49.456;2023-09-19T08:23:21;26.46;37.20
67555;HTU21D;54385;53.516;49.456;2023-09-19T08:25:56;26.61;36.73
67555;HTU21D;54385;53.516;49.456;2023-09-19T08:28:38;26.76;36.63
67555;HTU21D;54385;53.516;49.456;2023-09-19T08:31:19;26.82;36.37
67555;HTU21D;54385;53.516;49.456;2023-09-19T08:33:48;26.92;36.11
67555;HTU21D;54385;53.516;49.456;2023-09-19T08:36:21;27.01;35.92
67555;HTU21D;54385;53.516;49.456;2023-09-19T08:39:01;27.09;35.79
67555;HTU21D;54385;53.516;49.456;2023-09-19T08:41:36;27.05;36.08
67555;HTU21D;54385;53.516;49.456;2023-09-19T08:44:06;27.07;36.00
67555;HTU21D;54385;53.516;49.456;2023-09-19T08:46:35;27.06;36.01
67555;HTU21D;54385;53.516;49.456;2023-09-19T08:49:23;27.16;35.60
67555;HTU21D;54385;53.516;49.456;2023-09-19T08:52:01;27.30;35.36
67555;HTU21D;54385;53.516;49.456;2023-09-19T08:54:37;27.25;35.50
67555;HTU21D;54385;53.516;49.456;2023-09-19T08:57:10;27.08;35.77
67555;HTU21D;54385;53.516;49.456;2023-09-19T08:59:38;26.92;35.86
67555;HTU21D;54385;53.516;49.456;2023-09-19T09:02:15;26.80;35.89
67555;HTU21D;54385;53.516;49.456;2023-09-19T09:04:43;26.79;35.83
67555;HTU21D;54385;53.516;49.456;2023-09-19T09:07:11;26.85;35.72
67555;HTU21D;54385;53.516;49.456;2023-09-19T09:09:49;26.97;35.44
67555;HTU21D;54385;53.516;49.456;2023-09-19T09:12:21;27.13;35.08
67555;HTU21D;54385;53.516;49.456;2023-09-19T09:14:52;27.27;34.86
67555;HTU21D;54385;53.516;49.456;2023-09-19T09:17:20;27.38;34.63
67555;HTU21D;54385;53.516;49.456;2023-09-19T09:19:52;27.47;34.53
67555;HTU21D;54385;53.516;49.456;2023-09-19T09:22:19;27.43;34.50
67555;HTU21D;54385;53.516;49.456;2023-09-19T09:24:57;27.41;34.31
67555;HTU21D;54385;53.516;49.456;2023-09-19T09:27:32;27.49;34.41
67555;HTU21D;54385;53.516;49.456;2023-09-19T09:30:00;27.56;34.27
67555;HTU21D;54385;53.516;49.456;2023-09-19T09:32:30;27.66;34.06
67555;HTU21D;54385;53.516;49.456;2023-09-19T09:35:07;27.80;33.99
67555;HTU21D;54385;53.516;49.456;2023-09-19T09:37:43;27.90;33.92
67555;HTU21D;54385;53.516;49.456;2023-09-19T09:40:15;27.96;33.66
67555;HTU21D;54385;53.516;49.456;2023-09-19T09:42:46;27.93;33.63
67555;HTU21D;54385;53.516;49.456;2023-09-19T09:45:17;27.93;33.43
67555;HTU21D;54385;53.516;49.456;2023-09-19T09:47:49;27.85;33.34
67555;HTU21D;54385;53.516;49.456;2023-09-19T09:50:30;27.78;33.44
67555;HTU21D;54385;53.516;49.456;2023-09-19T09:53:21;27.74;33.25
67555;HTU21D;54385;53.516;49.456;2023-09-19T09:56:05;27.72;32.95
67555;HTU21D;54385;53.516;49.456;2023-09-19T09:59:03;27.64;32.84
67555;HTU21D;54385;53.516;49.456;2023-09-19T10:01:46;27.60;32.90
67555;HTU21D;54385;53.516;49.456;2023-09-19T10:04:29;27.70;32.81
67555;HTU21D;54385;53.516;49.456;2023-09-19T10:07:02;27.81;32.80
67555;HTU21D;54385;53.516;49.456;2023-09-19T10:09:45;28.05;31.86
67555;HTU21D;54385;53.516;49.456;2023-09-19T10:12:15;28.06;32.14
67555;HTU21D;54385;53.516;49.456;2023-09-19T10:14:43;27.99;32.23
67555;HTU21D;54385;53.516;49.456;2023-09-19T10:17:17;27.88;32.09
67555;HTU21D;54385;53.516;49.456;2023-09-19T10:19:56;27.79;32.34
67555;HTU21D;54385;53.516;49.456;2023-09-19T10:22:28;27.63;32.76
67555;HTU21D;54385;53.516;49.456;2023-09-19T10:24:59;27.68;32.83
67555;HTU21D;54385;53.516;49.456;2023-09-19T10:27:27;27.98;32.36
67555;HTU21D;54385;53.516;49.456;2023-09-19T10:30:07;28.25;31.80
67555;HTU21D;54385;53.516;49.456;2023-09-19T10:32:39;28.55;31.38
67555;HTU21D;54385;53.516;49.456;2023-09-19T10:35:07;28.82;30.87
67555;HTU21D;54385;53.516;49.456;2023-09-19T10:37:35;28.98;30.71
67555;HTU21D;54385;53.516;49.456;2023-09-19T10:40:06;29.13;30.28
67555;HTU21D;54385;53.516;49.456;2023-09-19T10:42:41;29.23;30.24
67555;HTU21D;54385;53.516;49.456;2023-09-19T10:45:09;29.27;30.24
67555;HTU21D;54385;53.516;49.456;2023-09-19T10:47:39;29.41;30.19
67555;HTU21D;54385;53.516;49.456;2023-09-19T10:50:09;29.52;29.85
67555;HTU21D;54385;53.516;49.456;2023-09-19T10:52:40;29.62;29.65
67555;HTU21D;54385;53.516;49.456;2023-09-19T10:55:15;29.76;29.39
67555;HTU21D;54385;53.516;49.456;2023-09-19T10:57:45;29.90;29.36
67555;HTU21D;54385;53.516;49.456;2023-09-19T11:00:13;30.08;29.16
67555;HTU21D;54385;53.516;49.456;2023-09-19T11:05:41;30.59;28.34
67555;HTU21D;54385;53.516;49.456;2023-09-19T11:08:11;30.81;28.45
67555;HTU21D;54385;53.516;49.456;2023-09-19T11:10:46;31.04;28.19
67555;HTU21D;54385;53.516;49.456;2023-09-19T11:13:27;31.23;27.90
67555;HTU21D;54385;53.516;49.456;2023-09-19T11:26:50;30.93;31.03
67555;HTU21D;54385;53.516;49.456;2023-09-19T11:29:28;31.15;30.68
67555;HTU21D;54385;53.516;49.456;2023-09-19T11:31:55;31.45;30.09
67555;HTU21D;54385;53.516;49.456;2023-09-19T11:34:41;31.82;29.39
67555;HTU21D;54385;53.516;49.456;2023-09-19T11:40:12;31.88;28.98
67555;HTU21D;54385;53.516;49.456;2023-09-19T11:42:49;31.37;30.10
67555;HTU21D;54385;53.516;49.456;2023-09-19T11:48:38;30.49;31.32
67555;HTU21D;54385;53.516;49.456;2023-09-19T11:54:43;29.92;32.10
67555;HTU21D;54385;53.516;49.456;2023-09-19T11:57:23;29.78;32.14
67555;HTU21D;54385;53.516;49.456;2023-09-19T12:00:19;30.00;32.00
67555;HTU21D;54385;53.516;49.456;2023-09-19T12:02:55;30.51;30.93
67555;HTU21D;54385;53.516;49.456;2023-09-19T12:05:30;31.01;30.10
67555;HTU21D;54385;53.516;49.456;2023-09-19T12:08:05;31.44;29.61
67555;HTU21D;54385;53.516;49.456;2023-09-19T12:10:55;31.83;28.54
67555;HTU21D;54385;53.516;49.456;2023-09-19T12:13:27;32.17;28.34
67555;HTU21D;54385;53.516;49.456;2023-09-19T12:15:55;32.47;27.87
67555;HTU21D;54385;53.516;49.456;2023-09-19T12:18:29;32.75;27.30
67555;HTU21D;54385;53.516;49.456;2023-09-19T12:20:58;32.92;27.12
67555;HTU21D;54385;53.516;49.456;2023-09-19T12:23:25;33.18;26.82
67555;HTU21D;54385;53.516;49.456;2023-09-19T12:25:57;33.40;26.51
67555;HTU21D;54385;53.516;49.456;2023-09-19T12:28:30;33.59;26.11
67555;HTU21D;54385;53.516;49.456;2023-09-19T12:31:09;33.79;25.93
67555;HTU21D;54385;53.516;49.456;2023-09-19T12:33:35;33.95;25.68
67555;HTU21D;54385;53.516;49.456;2023-09-19T12:36:22;34.06;24.92
67555;HTU21D;54385;53.516;49.456;2023-09-19T12:38:56;33.87;25.75
67555;HTU21D;54385;53.516;49.456;2023-09-19T12:41:25;33.51;26.15
67555;HTU21D;54385;53.516;49.456;2023-09-19T12:43:55;33.05;26.49
67555;HTU21D;54385;53.516;49.456;2023-09-19T12:46:30;32.58;27.07
67555;HTU21D;54385;53.516;49.456;2023-09-19T12:49:18;32.09;27.92
67555;HTU21D;54385;53.516;49.456;2023-09-19T12:52:08;31.56;29.00
67555;HTU21D;54385;53.516;49.456;2023-09-19T12:54:40;31.11;29.55
67555;HTU21D;54385;53.516;49.456;2023-09-19T12:57:24;30.68;30.21
67555;HTU21D;54385;53.516;49.456;2023-09-19T12:59:55;30.37;30.74
67555;HTU21D;54385;53.516;49.456;2023-09-19T13:02:33;30.13;31.09
67555;HTU21D;54385;53.516;49.456;2023-09-19T13:05:00;29.92;31.38
67555;HTU21D;54385;53.516;49.456;2023-09-19T13:07:48;29.66;31.84
67555;HTU21D;54385;53.516;49.456;2023-09-19T13:10:15;29.43;32.14
67555;HTU21D;54385;53.516;49.456;2023-09-19T13:12:43;29.23;32.48
67555;HTU21D;54385;53.516;49.456;2023-09-19T13:15:16;29.04;32.83
67555;HTU21D;54385;53.516;49.456;2023-09-19T13:17:47;28.85;33.05
67555;HTU21D;54385;53.516;49.456;2023-09-19T13:20:26;28.62;33.57
67555;HTU21D;54385;53.516;49.456;2023-09-19T13:22:58;28.41;33.76
67555;HTU21D;54385;53.516;49.456;2023-09-19T13:25:26;28.21;34.05
67555;HTU21D;54385;53.516;49.456;2023-09-19T13:27:59;28.08;34.34
67555;HTU21D;54385;53.516;49.456;2023-09-19T13:30:27;27.96;34.49
67555;HTU21D;54385;53.516;49.456;2023-09-19T13:33:09;27.83;34.95
67555;HTU21D;54385;53.516;49.456;2023-09-19T13:35:39;27.67;34.99
67555;HTU21D;54385;53.516;49.456;2023-09-19T13:38:52;27.44;35.68
67555;HTU21D;54385;53.516;49.456;2023-09-19T13:42:07;27.20;35.82
67555;HTU21D;54385;53.516;49.456;2023-09-19T13:44:38;27.04;36.14
67555;HTU21D;54385;53.516;49.456;2023-09-19T13:47:05;26.87;36.45
67555;HTU21D;54385;53.516;49.456;2023-09-19T13:49:37;26.72;36.78
67555;HTU21D;54385;53.516;49.456;2023-09-19T13:52:04;26.58;37.05
67555;HTU21D;54385;53.516;49.456;2023-09-19T13:54:31;26.47;37.32
67555;HTU21D;54385;53.516;49.456;2023-09-19T13:56:58;26.34;37.55
67555;HTU21D;54385;53.516;49.456;2023-09-19T13:59:25;26.21;37.80
67555;HTU21D;54385;53.516;49.456;2023-09-19T14:02:00;26.07;38.17
67555;HTU21D;54385;53.516;49.456;2023-09-19T14:04:27;25.95;38.64
67555;HTU21D;54385;53.516;49.456;2023-09-19T14:06:55;25.84;38.38
67555;HTU21D;54385;53.516;49.456;2023-09-19T14:09:24;25.75;38.65
67555;HTU21D;54385;53.516;49.456;2023-09-19T14:11:55;25.65;38.86
67555;HTU21D;54385;53.516;49.456;2023-09-19T14:14:23;25.58;39.03
67555;HTU21D;54385;53.516;49.456;2023-09-19T14:16:50;25.52;39.16
67555;HTU21D;54385;53.516;49.456;2023-09-19T14:19:18;25.44;39.29
67555;HTU21D;54385;53.516;49.456;2023-09-19T14:21:46;25.37;39.49
67555;HTU21D;54385;53.516;49.456;2023-09-19T14:24:19;25.27;39.97
67555;HTU21D;54385;53.516;49.456;2023-09-19T14:26:46;25.17;39.84
67555;HTU21D;54385;53.516;49.456;2023-09-19T14:29:13;25.05;40.12
67555;HTU21D;54385;53.516;49.456;2023-09-19T14:31:43;24.95;40.30
67555;HTU21D;54385;53.516;49.456;2023-09-19T14:34:10;24.84;40.56
67555;HTU21D;54385;53.516;49.456;2023-09-19T14:36:40;24.73;40.75
67555;HTU21D;54385;53.516;49.456;2023-09-19T14:39:07;24.64;40.98
67555;HTU21D;54385;53.516;49.456;2023-09-19T14:41:34;24.55;41.20
67555;HTU21D;54385;53.516;49.456;2023-09-19T14:44:05;24.47;41.53
67555;HTU21D;54385;53.516;49.456;2023-09-19T14:46:32;24.36;41.61
67555;HTU21D;54385;53.516;49.456;2023-09-19T14:48:58;24.26;41.83
67555;HTU21D;54385;53.516;49.456;2023-09-19T14:51:29;24.16;42.16
67555;HTU21D;54385;53.516;49.456;2023-09-19T14:53:56;24.08;42.24
67555;HTU21D;54385;53.516;49.456;2023-09-19T14:56:24;23.98;42.43
67555;HTU21D;54385;53.516;49.456;2023-09-19T14:58:52;23.89;42.61
67555;HTU21D;54385;53.516;49.456;2023-09-19T15:01:19;23.83;42.82
67555;HTU21D;54385;53.516;49.456;2023-09-19T15:03:46;23.75;42.95
67555;HTU21D;54385;53.516;49.456;2023-09-19T15:06:13;23.67;43.10
67555;HTU21D;54385;53.516;49.456;2023-09-19T15:08:41;23.60;43.27
67555;HTU21D;54385;53.516;49.456;2023-09-19T15:11:12;23.54;43.38
67555;HTU21D;54385;53.516;49.456;2023-09-19T15:13:39;23.49;43.51
67555;HTU21D;54385;53.516;49.456;2023-09-19T15:16:07;23.42;43.64
67555;HTU21D;54385;53.516;49.456;2023-09-19T15:18:38;23.36;43.77
67555;HTU21D;54385;53.516;49.456;2023-09-19T15:21:09;23.30;43.89
67555;HTU21D;54385;53.516;49.456;2023-09-19T15:23:38;23.25;43.98
67555;HTU21D;54385;53.516;49.456;2023-09-19T15:26:06;23.18;44.12
67555;HTU21D;54385;53.516;49.456;2023-09-19T15:28:36;23.15;44.15
67555;HTU21D;54385;53.516;49.456;2023-09-19T15:31:07;23.11;44.45
67555;HTU21D;54385;53.516;49.456;2023-09-19T15:33:36;23.06;44.34
67555;HTU21D;54385;53.516;49.456;2023-09-19T15:36:12;23.01;44.48
67555;HTU21D;54385;53.516;49.456;2023-09-19T15:39:03;22.97;44.86
67555;HTU21D;54385;53.516;49.456;2023-09-19T15:41:33;22.93;44.61
67555;HTU21D;54385;53.516;49.456;2023-09-19T15:44:02;22.88;44.71
67555;HTU21D;54385;53.516;49.456;2023-09-19T15:46:33;22.85;44.91
67555;HTU21D;54385;53.516;49.456;2023-09-19T15:49:01;22.83;44.80
67555;HTU21D;54385;53.516;49.456;2023-09-19T15:51:28;22.79;44.87
67555;HTU21D;54385;53.516;49.456;2023-09-19T15:53:56;22.75;44.95
67555;HTU21D;54385;53.516;49.456;2023-09-19T15:56:23;22.71;45.00
67555;HTU21D;54385;53.516;49.456;2023-09-19T15:58:54;22.68;45.10